Time;durP1;ratioP1;P1;durP2;ratioP2;P2;SDS_P1;SDS_P2;PMS_P1;PMS_P2;Temp;Humidity;BMP_temperature;BMP_pressure;BME280_temperature;BME280_humidity;BME280_pressure;Samples;Min_cycle;Max_cycle;Signal;HPM_P1;HPM_P2
2021/04/24 00:00:08;;;;;;;7.87;2.53;;;10.20;53.90;;;;;;5030618;28;20431;-50
2021/04/24 00:02:36;;;;;;;3.77;2.20;;;10.10;53.90;;;;;;5030243;28;20471;-51
2021/04/24 00:05:06;;;;;;;3.00;2.20;;;10.10;53.40;;;;;;5030710;28;20479;-51
2021/04/24 00:07:32;;;;;;;3.30;2.10;;;9.80;54.30;;;;;;5030718;28;20527;-50
2021/04/24 00:09:58;;;;;;;3.27;2.10;;;9.80;54.00;;;;;;5030768;28;20460;-51
2021/04/24 00:12:25;;;;;;;3.10;1.83;;;9.90;54.20;;;;;;5012609;28;20462;-51
2021/04/24 00:14:51;;;;;;;3.67;1.83;;;10.00;53.00;;;;;;5030686;28;20455;-51
2021/04/24 00:17:17;;;;;;;4.37;1.97;;;10.00;53.30;;;;;;5030434;28;20517;-51
2021/04/24 00:19:43;;;;;;;3.23;1.97;;;10.10;53.20;;;;;;5030615;28;20447;-51
2021/04/24 00:22:11;;;;;;;4.37;2.07;;;10.00;52.80;;;;;;5030461;28;20570;-51
2021/04/24 00:24:37;;;;;;;4.40;2.20;;;9.80;53.60;;;;;;5030415;28;20598;-50
2021/04/24 00:27:04;;;;;;;5.57;2.43;;;9.90;53.90;;;;;;5030707;28;20923;-51
2021/04/24 00:29:31;;;;;;;9.13;3.17;;;9.40;54.60;;;;;;5030565;28;20439;-51
2021/04/24 00:31:57;;;;;;;5.30;2.87;;;10.20;55.10;;;;;;5030485;28;20527;-50
2021/04/24 00:34:23;;;;;;;7.80;2.83;;;9.60;56.40;;;;;;5030313;28;20546;-51
2021/04/24 00:36:49;;;;;;;7.80;3.93;;;10.10;56.50;;;;;;5030588;28;20443;-52
2021/04/24 00:39:16;;;;;;;10.30;3.63;;;9.80;58.10;;;;;;5030436;28;20493;-50
2021/04/24 00:41:43;;;;;;;11.80;3.70;;;9.70;59.40;;;;;;5030403;28;20516;-48
2021/04/24 00:44:10;;;;;;;7.73;3.20;;;9.50;62.10;;;;;;5033866;28;20486;-50
2021/04/24 00:46:36;;;;;;;4.90;2.70;;;9.50;63.90;;;;;;5034458;28;20930;-50
2021/04/24 00:49:03;;;;;;;8.80;3.17;;;9.40;64.10;;;;;;5034310;28;20462;-50
2021/04/24 00:51:30;;;;;;;6.17;3.63;;;9.30;65.10;;;;;;5034268;28;20441;-50
2021/04/24 00:53:56;;;;;;;12.40;4.00;;;9.40;65.10;;;;;;5033990;28;20458;-50
2021/04/24 00:56:24;;;;;;;6.40;3.10;;;9.50;65.90;;;;;;5034449;28;20545;-50
2021/04/24 00:58:50;;;;;;;6.13;3.50;;;9.30;66.10;;;;;;5034054;28;20490;-50
2021/04/24 01:01:16;;;;;;;9.60;3.40;;;9.20;67.20;;;;;;5034156;28;20506;-50
2021/04/24 01:03:43;;;;;;;6.77;3.63;;;9.20;68.30;;;;;;5033983;28;20541;-50
2021/04/24 01:06:09;;;;;;;9.07;4.00;;;9.10;69.00;;;;;;5033827;28;20444;-50
2021/04/24 01:08:36;;;;;;;6.93;4.07;;;9.30;69.90;;;;;;5015817;28;20443;-50
2021/04/24 01:11:02;;;;;;;9.90;3.40;;;8.80;69.40;;;;;;5033866;28;20448;-50
2021/04/24 01:13:29;;;;;;;12.07;3.60;;;8.90;69.80;;;;;;5033626;28;20901;-50
2021/04/24 01:15:55;;;;;;;15.80;4.10;;;9.00;70.90;;;;;;5033809;28;20451;-50
2021/04/24 01:18:22;;;;;;;6.67;4.00;;;9.00;71.70;;;;;;5033791;28;20442;-49
2021/04/24 01:20:49;;;;;;;12.07;3.90;;;8.20;71.20;;;;;;5033677;28;20445;-50
2021/04/24 01:23:16;;;;;;;6.23;3.57;;;9.00;72.30;;;;;;5033337;28;20810;-50
2021/04/24 01:25:45;;;;;;;9.33;4.50;;;8.30;72.50;;;;;;5033873;28;20451;-50
2021/04/24 01:28:12;;;;;;;17.90;5.70;;;8.70;73.90;;;;;;5033647;28;20446;-50
2021/04/24 01:30:41;;;;;;;10.23;4.10;;;9.00;74.50;;;;;;5033734;28;20489;-50
2021/04/24 01:33:09;;;;;;;12.23;3.97;;;8.40;74.70;;;;;;5033441;28;20428;-50
2021/04/24 01:35:39;;;;;;;8.40;3.90;;;8.30;75.30;;;;;;5033408;28;20496;-51
2021/04/24 01:38:05;;;;;;;10.00;4.30;;;8.40;76.40;;;;;;5015553;28;20803;-50
2021/04/24 01:40:33;;;;;;;7.77;4.03;;;8.20;76.60;;;;;;5033386;28;20861;-49
2021/04/24 01:42:59;;;;;;;10.77;4.07;;;8.60;77.90;;;;;;5015302;28;20483;-50
2021/04/24 01:45:26;;;;;;;9.77;4.40;;;8.40;78.30;;;;;;5033137;28;20458;-51
2021/04/24 01:47:53;;;;;;;12.93;5.80;;;7.80;78.50;;;;;;5033268;28;20477;-50
2021/04/24 01:50:21;;;;;;;16.57;5.60;;;8.50;80.20;;;;;;5033205;28;20963;-50
2021/04/24 01:52:50;;;;;;;10.27;4.77;;;8.30;81.10;;;;;;5032846;28;20445;-50
2021/04/24 01:55:18;;;;;;;11.63;5.10;;;8.30;81.70;;;;;;5015486;28;20471;-51
2021/04/24 01:57:47;;;;;;;10.33;4.17;;;8.40;82.70;;;;;;5033244;28;20496;-50
2021/04/24 02:00:18;;;;;;;13.60;3.70;;;8.40;83.30;;;;;;5033242;28;20451;-50
2021/04/24 02:02:44;;;;;;;10.40;4.80;;;8.10;84.20;;;;;;5031739;28;20810;-50
2021/04/24 02:05:13;;;;;;;8.80;4.50;;;8.00;85.00;;;;;;5031627;28;20482;-50
2021/04/24 02:07:39;;;;;;;12.27;4.70;;;8.20;85.70;;;;;;5032979;28;20846;-50
2021/04/24 02:10:07;;;;;;;10.80;4.53;;;7.60;86.10;;;;;;5032761;28;21017;-50
2021/04/24 02:12:33;;;;;;;12.80;5.00;;;8.00;87.50;;;;;;5032648;28;20457;-49
2021/04/24 02:15:00;;;;;;;14.73;5.10;;;8.20;88.50;;;;;;5032810;28;21024;-50
2021/04/24 02:17:27;;;;;;;8.17;4.20;;;7.90;89.10;;;;;;5032650;28;20438;-51
2021/04/24 02:19:54;;;;;;;8.27;5.50;;;7.80;90.20;;;;;;5032775;28;20445;-50
2021/04/24 02:22:22;;;;;;;6.70;4.50;;;7.70;90.40;;;;;;5032517;28;20479;-50
2021/04/24 02:24:49;;;;;;;11.87;5.17;;;7.90;90.70;;;;;;5032590;28;20449;-50
2021/04/24 02:27:16;;;;;;;11.20;4.70;;;7.80;91.30;;;;;;5032597;28;20467;-50
2021/04/24 02:29:44;;;;;;;9.00;5.80;;;7.50;91.30;;;;;;5014625;28;20507;-50
2021/04/24 02:32:12;;;;;;;9.53;4.80;;;7.90;91.80;;;;;;5032201;28;20935;-50
2021/04/24 02:34:40;;;;;;;11.63;5.97;;;7.50;92.20;;;;;;5031962;28;20543;-51
2021/04/24 02:37:07;;;;;;;12.37;6.30;;;7.70;92.70;;;;;;5032279;28;20772;-51
2021/04/24 02:39:35;;;;;;;17.00;5.47;;;7.60;92.90;;;;;;5032360;28;20437;-51
2021/04/24 02:42:03;;;;;;;10.90;5.00;;;7.60;92.90;;;;;;5032287;28;20470;-51
2021/04/24 02:44:30;;;;;;;14.00;6.03;;;7.70;93.40;;;;;;5014003;28;20494;-50
2021/04/24 02:46:57;;;;;;;18.90;6.20;;;7.50;93.60;;;;;;5032018;28;20541;-51
2021/04/24 02:49:24;;;;;;;12.40;5.20;;;7.50;94.00;;;;;;5032595;28;20429;-50
2021/04/24 02:51:51;;;;;;;16.13;5.03;;;7.10;94.00;;;;;;5032154;28;20472;-51
2021/04/24 02:54:17;;;;;;;11.33;4.80;;;7.80;94.70;;;;;;5031788;28;20462;-51
2021/04/24 02:56:43;;;;;;;13.00;5.53;;;7.50;94.60;;;;;;5032047;28;20855;-51
2021/04/24 02:59:09;;;;;;;9.47;5.03;;;7.60;95.00;;;;;;5031913;28;20433;-50
2021/04/24 03:01:35;;;;;;;15.57;4.77;;;6.80;94.80;;;;;;5031713;28;20512;-51
2021/04/24 03:04:02;;;;;;;15.03;5.60;;;7.10;95.10;;;;;;5031574;28;20453;-50
2021/04/24 03:06:29;;;;;;;13.60;5.40;;;7.60;95.50;;;;;;5030915;28;20478;-51
2021/04/24 03:08:55;;;;;;;12.30;5.90;;;7.40;95.50;;;;;;5031760;28;20803;-51
2021/04/24 03:11:21;;;;;;;13.30;6.57;;;7.40;95.50;;;;;;5031818;28;20956;-50
2021/04/24 03:13:47;;;;;;;9.03;4.33;;;7.30;95.60;;;;;;5031414;28;20464;-50
2021/04/24 03:16:13;;;;;;;20.93;6.20;;;7.20;95.80;;;;;;5031749;28;20506;-49
2021/04/24 03:18:40;;;;;;;16.73;6.20;;;7.40;96.10;;;;;;5031915;28;20434;-51
2021/04/24 03:21:06;;;;;;;16.73;7.20;;;7.30;96.10;;;;;;5032029;28;20775;-51
2021/04/24 03:23:33;;;;;;;10.83;6.00;;;7.10;96.10;;;;;;5031579;28;20417;-49
2021/04/24 03:26:00;;;;;;;11.80;6.13;;;7.10;96.10;;;;;;5031588;28;20433;-50
2021/04/24 03:28:26;;;;;;;10.00;5.23;;;7.20;96.30;;;;;;5031419;28;20432;-50
2021/04/24 03:30:52;;;;;;;13.03;5.40;;;7.40;96.30;;;;;;5031833;28;20440;-50
2021/04/24 03:33:19;;;;;;;11.80;5.50;;;7.30;96.60;;;;;;5031470;28;20421;-50
2021/04/24 03:35:45;;;;;;;13.83;5.70;;;7.50;96.80;;;;;;5031193;28;20475;-50
2021/04/24 03:38:11;;;;;;;13.57;6.30;;;7.30;97.00;;;;;;5031465;28;20453;-51
2021/04/24 03:40:39;;;;;;;13.67;5.70;;;6.50;96.70;;;;;;5031526;28;20431;-51
2021/04/24 03:43:05;;;;;;;12.77;5.70;;;7.00;97.10;;;;;;5030840;28;20475;-51
2021/04/24 03:45:31;;;;;;;11.73;5.37;;;7.30;97.60;;;;;;5031422;28;20452;-51
2021/04/24 03:47:58;;;;;;;16.77;6.30;;;7.00;97.30;;;;;;5031417;28;21099;-51
2021/04/24 03:50:26;;;;;;;23.00;6.90;;;6.90;97.30;;;;;;5031190;28;20432;-51
2021/04/24 03:52:54;;;;;;;15.87;6.73;;;7.00;97.40;;;;;;5030933;28;20436;-51
2021/04/24 03:55:21;;;;;;;13.47;6.00;;;7.20;97.60;;;;;;5031270;28;20460;-51
2021/04/24 03:57:48;;;;;;;10.60;5.70;;;7.20;97.60;;;;;;5030979;28;20433;-51
2021/04/24 04:00:17;;;;;;;13.30;5.73;;;7.00;97.80;;;;;;5030865;28;20932;-50
2021/04/24 04:02:48;;;;;;;10.57;5.00;;;6.90;97.90;;;;;;5030511;28;20490;-51
2021/04/24 04:05:15;;;;;;;12.93;6.83;;;7.10;98.10;;;;;;5030934;28;20480;-50
2021/04/24 04:07:42;;;;;;;11.23;5.70;;;6.70;98.10;;;;;;5030700;28;20578;-49
2021/04/24 04:10:09;;;;;;;13.10;6.03;;;6.90;98.50;;;;;;5031295;28;20468;-50
2021/04/24 04:12:36;;;;;;;8.27;5.30;;;7.20;98.70;;;;;;5030776;28;20432;-49
2021/04/24 04:15:04;;;;;;;10.30;5.33;;;7.10;98.70;;;;;;5030602;28;20457;-49
2021/04/24 04:17:30;;;;;;;11.57;6.17;;;7.30;99.20;;;;;;5030761;28;20455;-49
2021/04/24 04:19:57;;;;;;;10.33;6.60;;;6.60;98.90;;;;;;5030521;28;20431;-50
2021/04/24 04:22:23;;;;;;;13.33;6.60;;;6.80;99.60;;;;;;5030248;28;20473;-50
2021/04/24 04:24:50;;;;;;;14.47;6.37;;;6.70;99.30;;;;;;5030631;28;20552;-50
2021/04/24 04:27:16;;;;;;;15.60;6.53;;;6.70;99.50;;;;;;5030674;28;20437;-50
2021/04/24 04:29:42;;;;;;;13.37;7.33;;;7.10;99.90;;;;;;5031028;28;20433;-49
2021/04/24 04:32:09;;;;;;;15.60;7.53;;;6.70;99.90;;;;;;5030911;28;20433;-50
2021/04/24 04:34:35;;;;;;;13.33;7.40;;;6.90;99.90;;;;;;5044895;23;20839;-45
2021/04/24 04:37:01;;;;;;;22.93;8.70;;;6.70;99.90;;;;;;5032163;28;20433;-45
2021/04/24 04:39:29;;;;;;;13.50;6.47;;;6.70;99.90;;;;;;5031696;28;20459;-46
2021/04/24 04:41:55;;;;;;;14.13;6.77;;;6.60;99.90;;;;;;5031683;28;20504;-46
2021/04/24 04:44:21;;;;;;;10.73;7.17;;;7.10;99.90;;;;;;5031165;28;21002;-45
2021/04/24 04:46:47;;;;;;;13.77;7.53;;;6.60;99.90;;;;;;5013547;28;20458;-45
2021/04/24 04:49:14;;;;;;;20.63;8.80;;;6.60;99.90;;;;;;5031540;28;20951;-46
2021/04/24 04:51:41;;;;;;;11.30;6.93;;;6.90;99.90;;;;;;5031526;28;20520;-45
2021/04/24 04:54:07;;;;;;;16.70;7.77;;;6.70;99.90;;;;;;5031295;28;20816;-45
2021/04/24 04:56:33;;;;;;;15.07;7.50;;;6.70;99.90;;;;;;5031509;28;20971;-45
2021/04/24 04:58:59;;;;;;;13.80;6.50;;;6.90;99.90;;;;;;5013780;28;20972;-46
2021/04/24 05:01:25;;;;;;;15.60;6.87;;;7.20;99.90;;;;;;5031758;28;20440;-46
2021/04/24 05:03:52;;;;;;;12.83;7.27;;;7.10;99.90;;;;;;5013333;28;20505;-46
2021/04/24 05:06:19;;;;;;;21.30;6.90;;;6.30;99.90;;;;;;5031456;28;20436;-46
2021/04/24 05:08:45;;;;;;;18.63;7.83;;;6.70;99.90;;;;;;5032040;28;20543;-45
2021/04/24 05:11:11;;;;;;;11.17;7.03;;;6.90;99.90;;;;;;5031546;28;20433;-45
2021/04/24 05:13:38;;;;;;;13.20;7.70;;;6.80;99.90;;;;;;5031262;28;20929;-45
2021/04/24 05:16:04;;;;;;;15.40;7.67;;;7.10;99.90;;;;;;5031372;28;20817;-46
2021/04/24 05:18:31;;;;;;;13.80;8.37;;;7.30;99.90;;;;;;5031066;28;20464;-46
2021/04/24 05:20:57;;;;;;;16.17;9.23;;;7.50;99.90;;;;;;5031151;28;20487;-46
2021/04/24 05:23:24;;;;;;;14.97;8.10;;;7.50;99.90;;;;;;5030622;28;20479;-46
2021/04/24 05:25:50;;;;;;;18.30;8.37;;;7.50;99.90;;;;;;5031695;28;20449;-46
2021/04/24 05:28:16;;;;;;;18.83;8.40;;;7.30;99.90;;;;;;5014494;28;20460;-45
2021/04/24 05:30:43;;;;;;;17.20;8.10;;;7.50;99.90;;;;;;5017368;28;20859;-45
2021/04/24 05:33:09;;;;;;;15.00;8.10;;;7.60;99.90;;;;;;5034388;28;20445;-45
2021/04/24 05:35:35;;;;;;;17.60;8.03;;;7.80;99.90;;;;;;5034715;28;20502;-44
2021/04/24 05:38:02;;;;;;;20.40;8.63;;;7.60;99.90;;;;;;5034934;28;20831;-44
2021/04/24 05:40:29;;;;;;;13.80;8.67;;;7.80;99.90;;;;;;5034381;28;20441;-44
2021/04/24 05:42:55;;;;;;;15.47;9.00;;;7.50;99.90;;;;;;5034266;28;20480;-45
2021/04/24 05:45:21;;;;;;;12.73;8.50;;;7.60;99.90;;;;;;5034464;28;20858;-47
2021/04/24 05:47:49;;;;;;;12.57;8.40;;;7.60;99.90;;;;;;5034436;28;20441;-45
2021/04/24 05:50:18;;;;;;;14.70;8.83;;;7.80;99.90;;;;;;5034356;28;20487;-46
2021/04/24 05:52:45;;;;;;;13.33;9.00;;;7.80;99.90;;;;;;5034044;28;20430;-47
2021/04/24 05:55:13;;;;;;;13.23;9.00;;;8.20;99.90;;;;;;5016129;28;20546;-46
2021/04/24 05:57:40;;;;;;;19.33;9.50;;;7.90;99.90;;;;;;5034141;28;20434;-46
2021/04/24 06:00:10;;;;;;;19.83;9.47;;;8.10;99.90;;;;;;5016004;28;20853;-47
2021/04/24 06:02:36;;;;;;;14.53;8.70;;;8.00;99.90;;;;;;5033392;28;20480;-47
2021/04/24 06:05:04;;;;;;;15.30;8.87;;;7.90;99.90;;;;;;5033935;28;20469;-46
2021/04/24 06:07:30;;;;;;;14.23;9.20;;;8.20;99.90;;;;;;5033735;28;20801;-47
2021/04/24 06:09:56;;;;;;;18.70;8.73;;;8.30;99.90;;;;;;5033637;28;20468;-46
2021/04/24 06:12:22;;;;;;;15.30;8.67;;;8.30;99.90;;;;;;5033166;28;20455;-46
2021/04/24 06:14:49;;;;;;;19.90;10.30;;;8.20;99.90;;;;;;5033380;28;20464;-47
2021/04/24 06:17:16;;;;;;;17.50;9.60;;;8.00;99.90;;;;;;5033473;28;20510;-47
2021/04/24 06:19:42;;;;;;;16.20;9.53;;;7.70;99.90;;;;;;5033546;28;20426;-47
2021/04/24 06:22:08;;;;;;;21.73;11.37;;;8.20;99.90;;;;;;5033609;28;20514;-46
2021/04/24 06:24:34;;;;;;;19.47;10.17;;;8.10;99.90;;;;;;5032924;28;20454;-46
2021/04/24 06:27:00;;;;;;;21.00;8.57;;;8.40;99.90;;;;;;5015842;28;20459;-46
2021/04/24 06:29:27;;;;;;;15.80;8.93;;;7.70;99.80;;;;;;5015798;28;20447;-48
2021/04/24 06:31:54;;;;;;;21.67;10.47;;;8.10;99.90;;;;;;5033361;28;20428;-47
2021/04/24 06:34:20;;;;;;;15.40;8.80;;;8.30;99.80;;;;;;5032792;28;20536;-46
2021/04/24 06:36:46;;;;;;;11.10;7.83;;;8.40;99.80;;;;;;5033230;28;20432;-46
2021/04/24 06:39:13;;;;;;;19.70;9.63;;;8.00;99.50;;;;;;5033205;28;20442;-46
2021/04/24 06:41:39;;;;;;;12.83;8.33;;;8.50;99.70;;;;;;5033032;28;20442;-46
2021/04/24 06:44:06;;;;;;;12.40;8.50;;;8.70;99.60;;;;;;5032525;28;20463;-46
2021/04/24 06:46:32;;;;;;;15.37;8.70;;;8.60;99.30;;;;;;5015126;28;20446;-46
2021/04/24 06:49:00;;;;;;;12.03;8.73;;;8.70;99.50;;;;;;5032839;28;20433;-46
2021/04/24 06:51:26;;;;;;;13.97;9.33;;;8.80;99.40;;;;;;5033023;28;20470;-46
2021/04/24 06:53:53;;;;;;;15.70;9.03;;;8.20;99.10;;;;;;5032353;28;20989;-46
2021/04/24 06:56:19;;;;;;;15.80;9.10;;;8.90;99.60;;;;;;5032750;28;20553;-46
2021/04/24 06:58:45;;;;;;;14.17;8.97;;;8.90;99.70;;;;;;5033229;28;20428;-46
2021/04/24 07:01:12;;;;;;;11.20;7.07;;;8.60;99.30;;;;;;5033006;28;20441;-46
2021/04/24 07:03:38;;;;;;;16.10;8.70;;;8.70;99.30;;;;;;5032328;28;20481;-46
2021/04/24 07:06:06;;;;;;;9.63;7.27;;;8.80;99.40;;;;;;5032771;28;20466;-46
2021/04/24 07:08:32;;;;;;;11.80;7.57;;;9.00;99.30;;;;;;5032692;28;20875;-46
2021/04/24 07:10:59;;;;;;;11.23;6.80;;;8.70;98.90;;;;;;5014794;28;20998;-46
2021/04/24 07:13:25;;;;;;;14.97;7.63;;;9.10;99.30;;;;;;5032111;28;20435;-46
2021/04/24 07:15:51;;;;;;;12.17;8.00;;;8.90;98.80;;;;;;5032587;28;20447;-47
2021/04/24 07:18:18;;;;;;;15.87;7.93;;;9.00;99.10;;;;;;5032582;28;20446;-47
2021/04/24 07:20:44;;;;;;;11.20;7.30;;;9.50;98.80;;;;;;5033102;28;20434;-46
2021/04/24 07:23:11;;;;;;;12.90;8.13;;;9.70;98.60;;;;;;5015261;28;20468;-46
2021/04/24 07:25:38;;;;;;;12.63;7.37;;;9.40;98.20;;;;;;5032762;28;20506;-46
2021/04/24 07:28:05;;;;;;;12.47;8.20;;;9.50;97.80;;;;;;5032575;28;20854;-46
2021/04/24 07:30:31;;;;;;;13.43;7.13;;;9.60;97.70;;;;;;5032313;28;20431;-47
2021/04/24 07:32:57;;;;;;;11.20;6.57;;;9.30;97.40;;;;;;5032129;28;20436;-46
2021/04/24 07:35:23;;;;;;;13.00;7.20;;;9.60;97.30;;;;;;5031807;28;20926;-46
2021/04/24 07:37:50;;;;;;;9.37;6.20;;;9.90;97.00;;;;;;5031976;28;20438;-46
2021/04/24 07:40:17;;;;;;;13.40;6.57;;;9.60;96.60;;;;;;5032043;28;20498;-46
2021/04/24 07:42:43;;;;;;;15.23;6.50;;;9.60;96.70;;;;;;5031760;28;20506;-46
2021/04/24 07:45:13;;;;;;;11.60;5.30;;;9.80;96.10;;;;;;5031561;28;21018;-47
2021/04/24 07:47:39;;;;;;;10.03;5.07;;;9.70;95.80;;;;;;5031509;28;20458;-48
2021/04/24 07:50:07;;;;;;;11.63;6.70;;;9.90;95.30;;;;;;5031783;28;20947;-47
2021/04/24 07:52:33;;;;;;;9.57;5.23;;;9.70;95.40;;;;;;5030899;28;20431;-46
2021/04/24 07:55:00;;;;;;;17.70;5.97;;;9.80;95.10;;;;;;5013702;28;20470;-45
2021/04/24 07:57:29;;;;;;;10.27;6.40;;;10.10;94.80;;;;;;5031819;28;20794;-46
2021/04/24 07:59:55;;;;;;;7.40;5.07;;;9.90;94.90;;;;;;5032128;28;20446;-48
2021/04/24 08:02:21;;;;;;;8.73;5.63;;;10.10;93.90;;;;;;5013807;28;20518;-47
2021/04/24 08:04:47;;;;;;;8.00;5.37;;;9.70;93.90;;;;;;5014109;28;20479;-46
2021/04/24 08:07:14;;;;;;;5.57;4.37;;;9.80;93.30;;;;;;5031683;28;20435;-46
2021/04/24 08:09:42;;;;;;;8.20;4.87;;;9.40;91.70;;;;;;5031327;28;20888;-46
2021/04/24 08:12:09;;;;;;;11.97;6.07;;;10.20;92.00;;;;;;5031292;28;20427;-47
2021/04/24 08:14:36;;;;;;;9.50;5.83;;;10.00;92.30;;;;;;5030737;28;20463;-47
2021/04/24 08:17:02;;;;;;;9.57;6.17;;;10.10;92.50;;;;;;5031074;28;20439;-47
2021/04/24 08:19:28;;;;;;;10.23;6.20;;;10.50;93.00;;;;;;5031336;28;20439;-46
2021/04/24 08:21:55;;;;;;;11.23;7.03;;;11.00;93.20;;;;;;5031304;28;20439;-48
2021/04/24 08:24:21;;;;;;;15.20;5.97;;;11.00;92.40;;;;;;5031369;28;20459;-45
2021/04/24 08:26:48;;;;;;;11.60;6.53;;;11.20;92.10;;;;;;5031777;28;20510;-48
2021/04/24 08:29:15;;;;;;;10.93;6.67;;;10.80;91.40;;;;;;5031881;28;20455;-46
2021/04/24 08:31:43;;;;;;;15.40;8.40;;;10.90;91.30;;;;;;5013856;28;20494;-46
2021/04/24 08:34:10;;;;;;;13.73;7.00;;;10.90;91.30;;;;;;5031373;28;20485;-46
2021/04/24 08:36:37;;;;;;;9.67;6.00;;;11.30;91.10;;;;;;5031536;28;20439;-46
2021/04/24 08:39:04;;;;;;;10.40;6.33;;;10.90;90.40;;;;;;5032470;28;20439;-46
2021/04/24 08:41:31;;;;;;;12.70;6.23;;;10.80;88.30;;;;;;5031958;28;20454;-46
2021/04/24 08:43:58;;;;;;;7.57;4.90;;;10.80;88.90;;;;;;5031210;28;20483;-46
2021/04/24 08:46:25;;;;;;;7.80;5.40;;;10.70;87.40;;;;;;5031009;28;20436;-46
2021/04/24 08:48:53;;;;;;;9.13;6.33;;;10.90;87.00;;;;;;5031956;28;20433;-46
2021/04/24 08:51:20;;;;;;;13.13;7.50;;;10.90;87.90;;;;;;5031906;28;20484;-47
2021/04/24 08:53:47;;;;;;;8.83;5.07;;;11.30;88.90;;;;;;5031249;28;20486;-46
2021/04/24 08:56:13;;;;;;;13.83;5.87;;;11.00;87.50;;;;;;5031730;28;20428;-46
2021/04/24 08:58:39;;;;;;;6.33;4.43;;;10.90;86.40;;;;;;5031774;28;20439;-46
2021/04/24 09:01:08;;;;;;;6.80;4.70;;;11.70;86.00;;;;;;5031881;28;20428;-47
2021/04/24 09:03:35;;;;;;;8.37;4.40;;;11.50;84.90;;;;;;5014366;28;20474;-47
2021/04/24 09:06:02;;;;;;;9.33;4.40;;;11.60;83.40;;;;;;5017818;28;20828;-48
2021/04/24 09:08:30;;;;;;;7.20;4.30;;;12.00;83.20;;;;;;5035459;28;20428;-47
2021/04/24 09:10:58;;;;;;;8.87;3.83;;;11.90;81.70;;;;;;5035359;28;20440;-46
2021/04/24 09:13:26;;;;;;;5.50;3.50;;;11.80;78.80;;;;;;5034540;28;20813;-46
2021/04/24 09:15:52;;;;;;;7.00;4.10;;;12.00;78.20;;;;;;5034512;28;20807;-46
2021/04/24 09:18:20;;;;;;;8.77;4.27;;;11.70;78.00;;;;;;5017344;28;20477;-46
2021/04/24 09:20:49;;;;;;;5.00;3.40;;;12.30;77.20;;;;;;5034916;28;20438;-47
2021/04/24 09:23:17;;;;;;;7.80;4.13;;;12.10;76.90;;;;;;5034880;28;20571;-47
2021/04/24 09:25:46;;;;;;;9.23;4.33;;;11.90;76.30;;;;;;5034413;28;20451;-47
2021/04/24 09:28:25;;;;;;;5.87;3.77;;;11.90;75.80;;;;;;5035185;28;20489;-47
2021/04/24 09:30:52;;;;;;;7.13;4.40;;;11.80;76.30;;;;;;5035237;28;20474;-47
2021/04/24 09:33:18;;;;;;;6.70;3.57;;;12.20;76.50;;;;;;5035026;28;20431;-47
2021/04/24 09:35:53;;;;;;;8.17;3.83;;;12.60;75.50;;;;;;5035236;28;20478;-47
2021/04/24 09:38:26;;;;;;;4.70;3.43;;;12.30;74.70;;;;;;5034377;28;20477;-47
2021/04/24 09:41:16;;;;;;;6.00;3.37;;;12.60;74.50;;;;;;5034002;28;20462;-47
2021/04/24 09:44:02;;;;;;;8.00;4.13;;;12.40;73.80;;;;;;5033536;28;20487;-45
2021/04/24 09:46:31;;;;;;;6.13;3.50;;;12.30;74.00;;;;;;5034476;28;20937;-46
2021/04/24 09:49:16;;;;;;;8.07;4.10;;;12.20;73.10;;;;;;5033893;28;20479;-46
2021/04/24 09:51:45;;;;;;;6.70;3.30;;;12.50;73.70;;;;;;5033831;28;20440;-47
2021/04/24 09:54:12;;;;;;;6.90;4.20;;;12.60;73.70;;;;;;5033421;28;20468;-46
2021/04/24 09:56:39;;;;;;;5.60;3.60;;;12.30;73.90;;;;;;5033998;28;20524;-47
2021/04/24 09:59:07;;;;;;;7.27;5.10;;;12.20;74.20;;;;;;5033309;28;20949;-47
2021/04/24 10:01:34;;;;;;;10.60;6.53;;;12.20;74.50;;;;;;5033744;28;20467;-47
2021/04/24 10:04:02;;;;;;;10.30;5.50;;;12.40;75.10;;;;;;5033112;28;20480;-47
2021/04/24 10:06:34;;;;;;;11.07;4.67;;;11.80;75.20;;;;;;5033827;28;20777;-47
2021/04/24 10:09:25;;;;;;;11.23;5.43;;;12.60;76.90;;;;;;5033701;28;20443;-47
2021/04/24 10:12:03;;;;;;;8.10;4.30;;;12.40;77.60;;;;;;5033376;28;20814;-48
2021/04/24 10:14:31;;;;;;;8.60;5.30;;;12.30;77.70;;;;;;5032707;28;20468;-47
2021/04/24 10:16:58;;;;;;;7.43;4.63;;;12.40;77.60;;;;;;5016480;28;20505;-45
2021/04/24 10:19:26;;;;;;;5.17;3.93;;;12.40;76.80;;;;;;5033889;28;20461;-46
2021/04/24 10:21:52;;;;;;;12.67;5.00;;;12.50;75.10;;;;;;5033324;28;20505;-47
2021/04/24 10:24:21;;;;;;;12.40;4.50;;;12.30;73.70;;;;;;5033056;28;20505;-47
2021/04/24 10:26:47;;;;;;;7.70;5.37;;;12.50;72.20;;;;;;5033711;28;20436;-46
2021/04/24 10:29:14;;;;;;;9.63;4.40;;;12.40;71.60;;;;;;5015697;28;20462;-46
2021/04/24 10:31:40;;;;;;;11.53;5.13;;;12.80;73.30;;;;;;5033386;28;20494;-46
2021/04/24 10:34:07;;;;;;;7.90;5.07;;;12.00;73.20;;;;;;5033349;28;20526;-48
2021/04/24 10:36:35;;;;;;;16.13;4.60;;;12.30;73.70;;;;;;5033479;28;20484;-45
2021/04/24 10:39:03;;;;;;;12.13;4.63;;;12.30;73.10;;;;;;5033921;28;20559;-47
2021/04/24 10:41:34;;;;;;;8.23;4.63;;;12.10;71.60;;;;;;5032740;28;20462;-46
2021/04/24 10:44:04;;;;;;;6.87;4.57;;;12.40;71.20;;;;;;5032306;28;20485;-47
2021/04/24 10:46:34;;;;;;;5.93;3.70;;;12.10;70.90;;;;;;5032794;28;20423;-48
2021/04/24 10:49:18;;;;;;;6.87;4.03;;;12.20;69.20;;;;;;5032488;28;20432;-46
2021/04/24 10:51:56;;;;;;;9.37;4.77;;;12.20;68.70;;;;;;5014644;28;20447;-45
2021/04/24 10:54:22;;;;;;;6.23;3.90;;;12.40;69.70;;;;;;5032495;28;20501;-47
2021/04/24 10:56:49;;;;;;;6.13;4.67;;;12.70;70.10;;;;;;5034729;28;20991;-47
2021/04/24 10:59:21;;;;;;;8.73;4.50;;;12.60;70.00;;;;;;5014406;28;20463;-44
2021/04/24 11:02:08;;;;;;;6.50;3.53;;;12.30;68.10;;;;;;5032706;28;20921;-46
2021/04/24 11:04:43;;;;;;;8.97;4.30;;;13.10;66.90;;;;;;5031843;28;20455;-46
2021/04/24 11:07:18;;;;;;;14.03;4.23;;;12.90;66.20;;;;;;5031668;28;20446;-47
2021/04/24 11:09:44;;;;;;;9.37;5.97;;;13.00;64.40;;;;;;5013664;28;20910;-45
2021/04/24 11:12:12;;;;;;;9.60;3.80;;;13.00;63.50;;;;;;5031928;28;20524;-45
2021/04/24 11:14:40;;;;;;;12.23;4.17;;;13.00;62.60;;;;;;5031592;28;20545;-45
2021/04/24 11:17:08;;;;;;;4.97;3.60;;;13.00;62.70;;;;;;5032475;28;20465;-46
2021/04/24 11:19:41;;;;;;;7.70;4.13;;;13.00;63.40;;;;;;5032144;28;20442;-46
2021/04/24 11:22:36;;;;;;;7.07;4.20;;;13.30;63.90;;;;;;5031957;28;20467;-47
2021/04/24 11:25:31;;;;;;;9.13;4.50;;;12.90;63.10;;;;;;5031992;28;20469;-47
2021/04/24 11:28:06;;;;;;;6.37;3.50;;;12.70;62.90;;;;;;5014112;28;20806;-51
2021/04/24 11:30:49;;;;;;;6.10;3.53;;;12.40;62.70;;;;;;5032266;28;20428;-47
2021/04/24 11:33:30;;;;;;;6.57;3.40;;;12.30;61.30;;;;;;5032087;28;20433;-47
2021/04/24 11:36:17;;;;;;;8.10;4.43;;;12.40;62.30;;;;;;5031731;28;20468;-46
2021/04/24 11:39:06;;;;;;;9.60;4.07;;;12.30;62.30;;;;;;5031945;28;20795;-46
2021/04/24 11:41:33;;;;;;;5.60;3.70;;;12.40;62.50;;;;;;5013951;28;20975;-46
2021/04/24 11:44:35;;;;;;;7.00;4.73;;;12.30;63.20;;;;;;5031695;28;20537;-46
2021/04/24 11:47:02;;;;;;;6.70;4.40;;;12.20;63.80;;;;;;5031303;28;20439;-46
2021/04/24 11:49:29;;;;;;;7.17;3.90;;;12.60;64.70;;;;;;5032105;28;20494;-46
2021/04/24 11:51:59;;;;;;;9.10;4.73;;;12.50;63.60;;;;;;5032668;28;20955;-46
2021/04/24 11:54:28;;;;;;;8.47;3.80;;;12.70;64.30;;;;;;5033106;28;20562;-46
2021/04/24 11:56:57;;;;;;;9.00;4.13;;;12.10;61.70;;;;;;5033985;28;20439;-48
2021/04/24 11:59:25;;;;;;;9.03;3.97;;;12.50;61.40;;;;;;5033542;28;20519;-47
2021/04/24 12:01:53;;;;;;;8.43;3.63;;;12.20;60.50;;;;;;5033436;28;20522;-47
2021/04/24 12:04:28;;;;;;;6.23;4.20;;;12.60;59.30;;;;;;5032259;28;20481;-47
2021/04/24 12:07:06;;;;;;;5.77;3.70;;;12.60;58.60;;;;;;5033299;28;20425;-47
2021/04/24 12:09:45;;;;;;;5.37;3.77;;;12.70;58.90;;;;;;5033441;28;20539;-47
2021/04/24 12:12:13;;;;;;;8.53;5.30;;;12.40;58.60;;;;;;5032519;28;20451;-48
2021/04/24 12:14:39;;;;;;;13.83;5.17;;;12.70;59.00;;;;;;5031004;28;20558;-46
2021/04/24 12:17:08;;;;;;;9.37;4.67;;;13.20;59.90;;;;;;5033403;28;20433;-47
2021/04/24 12:19:37;;;;;;;10.60;3.80;;;12.60;60.00;;;;;;5033137;28;20439;-47
2021/04/24 12:22:20;;;;;;;6.20;3.80;;;12.70;59.90;;;;;;5032504;28;20478;-47
2021/04/24 12:24:58;;;;;;;4.20;3.50;;;12.70;60.60;;;;;;5032157;28;20493;-46
2021/04/24 12:27:40;;;;;;;6.30;4.20;;;13.20;60.40;;;;;;5031122;28;20442;-47
2021/04/24 12:30:10;;;;;;;5.37;3.47;;;13.10;59.80;;;;;;5031405;28;20437;-46
2021/04/24 12:32:39;;;;;;;11.17;3.83;;;13.50;58.80;;;;;;5013354;28;20458;-48
2021/04/24 12:35:09;;;;;;;5.80;3.47;;;13.30;58.20;;;;;;5031382;28;20476;-46
2021/04/24 12:37:35;;;;;;;9.47;4.40;;;13.60;58.00;;;;;;5032171;28;20442;-46
2021/04/24 12:40:08;;;;;;;5.90;4.13;;;13.60;56.20;;;;;;5035549;28;20441;-47
2021/04/24 12:42:35;;;;;;;7.00;4.30;;;13.50;55.30;;;;;;5034514;28;20465;-45
2021/04/24 12:45:06;;;;;;;5.40;4.03;;;13.40;55.80;;;;;;5035327;28;20450;-46
2021/04/24 12:47:34;;;;;;;9.00;3.90;;;13.60;56.60;;;;;;5034867;28;20923;-47
2021/04/24 12:50:05;;;;;;;8.23;3.83;;;13.60;56.70;;;;;;5034728;28;20522;-46
2021/04/24 12:52:42;;;;;;;4.40;3.37;;;13.40;56.80;;;;;;5033803;28;20430;-47